createdAt,value
2023-05-14T00:00:37.258Z,18.70
2023-05-14T00:03:04.034Z,22.20
2023-05-14T00:05:30.814Z,26.00
2023-05-14T00:07:57.532Z,23.10
2023-05-14T00:10:24.303Z,19.40
2023-05-14T00:12:52.537Z,19.10
2023-05-14T00:15:19.469Z,16.50
2023-05-14T00:17:46.299Z,14.50
2023-05-14T00:20:13.027Z,17.90
2023-05-14T00:22:40.234Z,11.00
2023-05-14T00:25:07.620Z,12.90
2023-05-14T00:27:35.526Z,13.40
2023-05-14T00:30:03.437Z,9.80
2023-05-14T00:32:31.176Z,13.40
2023-05-14T00:34:57.963Z,9.70
2023-05-14T00:37:24.628Z,20.60
2023-05-14T00:39:51.649Z,12.30
2023-05-14T00:42:18.894Z,18.80
2023-05-14T00:44:45.653Z,15.20
2023-05-14T00:47:12.433Z,13.60
2023-05-14T00:49:40.365Z,11.50
2023-05-14T00:52:07.081Z,14.20
2023-05-14T00:54:34.158Z,15.40
2023-05-14T00:57:01.184Z,12.90
2023-05-14T00:59:28.375Z,8.90
2023-05-14T01:01:55.202Z,15.90
2023-05-14T01:04:21.884Z,20.70
2023-05-14T01:07:08.249Z,12.20
2023-05-14T01:09:36.597Z,13.10
2023-05-14T01:12:06.191Z,16.60
2023-05-14T01:14:36.091Z,14.70
2023-05-14T01:17:03.762Z,13.10
2023-05-14T01:19:40.199Z,11.40
2023-05-14T01:22:07.072Z,11.00
2023-05-14T01:24:33.722Z,13.10
2023-05-14T01:27:10.074Z,12.20
2023-05-14T01:29:37.896Z,11.90
2023-05-14T01:32:06.380Z,13.80
2023-05-14T01:34:33.277Z,18.70
2023-05-14T01:37:01.418Z,18.90
2023-05-14T01:39:31.469Z,17.20
2023-05-14T01:41:58.682Z,15.60
2023-05-14T01:44:25.336Z,15.20
2023-05-14T01:46:52.527Z,18.20
2023-05-14T01:49:19.254Z,21.40
2023-05-14T01:51:45.967Z,21.70
2023-05-14T01:54:12.709Z,19.40
2023-05-14T01:56:39.397Z,21.80
2023-05-14T01:59:06.389Z,20.70
2023-05-14T02:01:33.368Z,16.10
2023-05-14T02:04:00.697Z,18.90
2023-05-14T02:06:27.415Z,22.70
2023-05-14T02:08:55.771Z,24.80
2023-05-14T02:11:22.516Z,17.60
2023-05-14T02:13:49.323Z,18.70
2023-05-14T02:16:16.112Z,18.10
2023-05-14T02:18:42.872Z,16.90
2023-05-14T02:21:09.667Z,14.90
2023-05-14T02:23:41.589Z,12.10
2023-05-14T02:26:11.143Z,11.40
2023-05-14T02:28:37.859Z,14.50
2023-05-14T02:31:04.642Z,11.80
2023-05-14T02:33:32.101Z,11.70
2023-05-14T02:35:58.835Z,14.80
2023-05-14T02:38:25.891Z,10.90
2023-05-14T02:40:52.631Z,12.50
2023-05-14T02:43:19.353Z,13.90
2023-05-14T02:45:46.544Z,16.70
2023-05-14T02:48:13.644Z,12.90
2023-05-14T02:50:41.166Z,16.30
2023-05-14T02:53:08.295Z,20.70
2023-05-14T02:55:35.845Z,19.10
2023-05-14T02:58:02.687Z,20.50
2023-05-14T03:00:29.419Z,18.30
2023-05-14T03:02:56.590Z,18.20
2023-05-14T03:05:24.149Z,22.20
2023-05-14T03:07:51.193Z,21.30
2023-05-14T03:10:18.989Z,22.70
2023-05-14T03:12:46.758Z,17.40
2023-05-14T03:15:13.407Z,22.30
2023-05-14T03:17:40.666Z,21.10
2023-05-14T03:20:07.779Z,16.60
2023-05-14T03:22:36.138Z,19.70
2023-05-14T03:25:02.953Z,16.60
2023-05-14T03:27:29.845Z,14.00
2023-05-14T03:29:56.576Z,16.80
2023-05-14T03:32:23.415Z,12.60
2023-05-14T03:34:50.365Z,25.30
2023-05-14T03:37:17.184Z,19.50
2023-05-14T03:39:43.877Z,13.50
2023-05-14T03:42:10.499Z,15.20
2023-05-14T03:44:37.137Z,18.60
2023-05-14T03:47:04.102Z,17.10
2023-05-14T03:49:30.808Z,19.00
2023-05-14T03:51:58.835Z,18.80
2023-05-14T03:54:26.077Z,15.50
2023-05-14T03:56:53.332Z,13.40
2023-05-14T03:59:20.015Z,17.50
2023-05-14T04:01:46.682Z,22.90
2023-05-14T04:04:13.464Z,22.30
2023-05-14T04:06:40.281Z,19.70
2023-05-14T04:09:07.001Z,22.80
2023-05-14T04:11:35.315Z,22.60
2023-05-14T04:14:02.153Z,21.90
2023-05-14T04:16:29.934Z,20.30
2023-05-14T04:18:56.902Z,20.20
2023-05-14T04:21:23.705Z,25.80
2023-05-14T04:23:51.077Z,21.00
2023-05-14T04:26:17.896Z,17.20
2023-05-14T04:28:45.546Z,20.10
2023-05-14T04:31:12.438Z,21.00
2023-05-14T04:33:39.328Z,27.10
2023-05-14T04:36:06.690Z,19.50
2023-05-14T04:38:33.608Z,18.60
2023-05-14T04:41:00.277Z,20.40
2023-05-14T04:43:26.892Z,21.40
2023-05-14T04:45:53.571Z,20.10
2023-05-14T04:48:21.114Z,21.80
2023-05-14T04:50:47.742Z,19.30
2023-05-14T04:53:14.354Z,22.40
2023-05-14T04:55:40.967Z,21.50
2023-05-14T04:58:07.717Z,20.90
2023-05-14T05:00:34.487Z,19.70
2023-05-14T05:03:01.225Z,22.90
2023-05-14T05:05:28.162Z,16.70
2023-05-14T05:07:55.041Z,14.50
2023-05-14T05:10:22.093Z,20.40
2023-05-14T05:12:49.061Z,19.60
2023-05-14T05:15:18.946Z,20.50
2023-05-14T05:17:46.026Z,18.40
2023-05-14T05:20:13.337Z,15.30
2023-05-14T05:22:40.119Z,15.60
2023-05-14T05:25:08.866Z,17.10
2023-05-14T05:27:41.977Z,17.00
2023-05-14T05:30:09.458Z,13.80
2023-05-14T05:32:36.338Z,13.30
2023-05-14T05:35:03.188Z,15.20
2023-05-14T05:37:30.309Z,15.80
2023-05-14T05:39:56.990Z,15.90
2023-05-14T05:42:23.987Z,16.20
2023-05-14T05:44:50.634Z,18.60
2023-05-14T05:47:17.400Z,11.70
2023-05-14T05:49:44.570Z,13.20
2023-05-14T05:52:12.018Z,12.00
2023-05-14T05:54:39.319Z,16.60
2023-05-14T05:57:06.247Z,9.70
2023-05-14T05:59:33.648Z,13.70
2023-05-14T06:02:00.358Z,13.00
2023-05-14T06:04:27.135Z,9.60
2023-05-14T06:06:53.895Z,10.90
2023-05-14T06:09:20.837Z,17.70
2023-05-14T06:11:47.553Z,11.70
2023-05-14T06:14:14.299Z,9.00
2023-05-14T06:16:41.094Z,8.00
2023-05-14T06:19:07.944Z,8.90
2023-05-14T06:21:34.763Z,7.30
2023-05-14T06:24:01.422Z,7.80
2023-05-14T06:26:28.138Z,6.10
2023-05-14T06:28:54.801Z,11.10
2023-05-14T06:31:21.577Z,5.30
2023-05-14T06:33:48.261Z,8.30
2023-05-14T06:36:14.891Z,8.40
2023-05-14T06:38:41.588Z,4.30
2023-05-14T06:41:08.251Z,6.00
2023-05-14T06:43:35.613Z,5.20
2023-05-14T06:46:02.429Z,5.90
2023-05-14T06:48:30.329Z,7.00
2023-05-14T06:50:57.424Z,11.50
2023-05-14T06:53:24.211Z,8.40
2023-05-14T06:55:50.898Z,6.10
2023-05-14T06:58:17.655Z,6.30
2023-05-14T07:00:44.612Z,8.70
2023-05-14T07:03:11.330Z,9.70
2023-05-14T07:05:40.682Z,5.80
2023-05-14T07:08:07.388Z,10.10
2023-05-14T07:10:34.323Z,5.70
2023-05-14T07:13:01.331Z,7.10
2023-05-14T07:15:28.134Z,7.60
2023-05-14T07:17:55.197Z,13.10
2023-05-14T07:20:23.758Z,9.20
2023-05-14T07:22:51.823Z,6.80
2023-05-14T07:25:18.511Z,6.50
2023-05-14T07:27:45.215Z,6.90
2023-05-14T07:30:12.322Z,13.40
2023-05-14T07:32:39.627Z,5.40
2023-05-14T07:35:06.900Z,4.90
2023-05-14T07:37:33.675Z,6.90
2023-05-14T07:40:00.384Z,5.10
2023-05-14T07:42:35.834Z,5.40
2023-05-14T07:45:04.389Z,10.30
2023-05-14T07:47:32.086Z,4.80
2023-05-14T07:49:58.932Z,3.20
2023-05-14T07:52:25.627Z,6.20
2023-05-14T07:54:52.380Z,6.10
2023-05-14T07:57:19.303Z,4.70
2023-05-14T07:59:47.484Z,7.30
2023-05-14T08:02:15.478Z,6.40
2023-05-14T08:04:42.182Z,5.30
2023-05-14T08:07:09.780Z,5.70
2023-05-14T08:09:36.815Z,7.60
2023-05-14T08:12:03.894Z,7.30
2023-05-14T08:14:30.783Z,4.80
2023-05-14T08:16:57.890Z,7.50
2023-05-14T08:19:26.776Z,5.40
2023-05-14T08:21:53.475Z,7.10
2023-05-14T08:24:20.225Z,5.60
2023-05-14T08:26:47.116Z,6.70
2023-05-14T08:29:16.099Z,5.30
2023-05-14T08:31:44.665Z,6.10
2023-05-14T08:34:11.517Z,9.00
2023-05-14T08:36:38.500Z,6.60
2023-05-14T08:39:07.160Z,8.90
2023-05-14T08:41:34.281Z,5.10
2023-05-14T08:44:11.917Z,8.20
2023-05-14T08:46:38.991Z,9.50
2023-05-14T08:49:22.909Z,7.00
2023-05-14T08:51:49.736Z,5.20
2023-05-14T08:54:17.275Z,5.80
2023-05-14T08:56:45.890Z,7.10
2023-05-14T08:59:12.696Z,7.00
2023-05-14T09:01:43.428Z,6.60
2023-05-14T09:04:10.445Z,8.50
2023-05-14T09:06:37.410Z,6.80
2023-05-14T09:09:04.229Z,9.50
2023-05-14T09:11:33.200Z,8.70
2023-05-14T09:13:59.899Z,4.10
2023-05-14T09:16:46.671Z,7.40
2023-05-14T09:19:13.971Z,5.50
2023-05-14T09:21:41.213Z,5.30
2023-05-14T09:24:08.202Z,5.30
2023-05-14T09:26:35.013Z,5.50
2023-05-14T09:29:03.052Z,8.20
2023-05-14T09:31:31.295Z,9.10
2023-05-14T09:33:58.419Z,6.70
2023-05-14T09:36:26.676Z,7.00
2023-05-14T09:38:56.226Z,5.80
2023-05-14T09:41:22.958Z,7.10
2023-05-14T09:43:50.964Z,7.40
2023-05-14T09:46:17.656Z,12.40
2023-05-14T09:48:45.320Z,5.30
2023-05-14T09:51:12.899Z,5.10
2023-05-14T09:53:40.755Z,9.10
2023-05-14T09:56:07.544Z,4.90
2023-05-14T09:58:34.682Z,7.50
2023-05-14T10:01:02.123Z,9.40
2023-05-14T10:03:29.399Z,6.10
2023-05-14T10:05:59.287Z,7.90
2023-05-14T10:08:27.711Z,3.80
2023-05-14T10:10:55.562Z,8.00
2023-05-14T10:13:23.914Z,5.50
2023-05-14T10:16:16.897Z,4.70
2023-05-14T10:18:47.904Z,5.50
2023-05-14T10:21:15.141Z,5.20
2023-05-14T10:23:41.828Z,7.90
2023-05-14T10:26:08.691Z,4.60
2023-05-14T10:28:36.170Z,4.10
2023-05-14T10:31:03.156Z,5.10
2023-05-14T10:33:29.973Z,7.20
2023-05-14T10:36:03.579Z,4.80
2023-05-14T10:38:35.307Z,3.20
2023-05-14T10:41:03.643Z,5.60
2023-05-14T10:43:31.192Z,4.20
2023-05-14T10:45:58.163Z,5.30
2023-05-14T10:48:24.996Z,8.10
2023-05-14T10:50:51.959Z,4.00
2023-05-14T10:53:19.780Z,4.10
2023-05-14T10:55:46.745Z,6.00
2023-05-14T10:58:13.456Z,6.70
2023-05-14T11:00:40.205Z,4.80
2023-05-14T11:03:07.182Z,6.50
2023-05-14T11:05:36.646Z,3.10
2023-05-14T11:08:05.816Z,10.20
2023-05-14T11:10:32.692Z,5.00
2023-05-14T11:12:59.442Z,3.00
2023-05-14T11:15:27.853Z,6.40
2023-05-14T11:17:54.718Z,5.10
2023-05-14T11:20:21.586Z,8.10
2023-05-14T11:22:48.570Z,6.90
2023-05-14T11:25:15.442Z,10.10
2023-05-14T11:27:44.959Z,7.60
2023-05-14T11:30:16.073Z,4.20
2023-05-14T11:32:45.570Z,5.80
2023-05-14T11:35:12.862Z,5.10
2023-05-14T11:37:40.236Z,6.20
2023-05-14T11:40:09.890Z,4.80
2023-05-14T11:42:38.789Z,4.00
2023-05-14T11:45:06.437Z,6.60
2023-05-14T11:47:33.398Z,6.20
2023-05-14T11:50:00.619Z,8.00
2023-05-14T11:52:27.310Z,3.70
2023-05-14T11:54:54.036Z,5.90
2023-05-14T11:57:21.381Z,7.20
2023-05-14T11:59:49.134Z,6.30
2023-05-14T12:02:17.611Z,3.20
2023-05-14T12:04:44.585Z,6.80
2023-05-14T12:07:12.686Z,9.60
2023-05-14T12:09:50.960Z,5.40
2023-05-14T12:12:21.037Z,5.60
2023-05-14T12:14:49.165Z,3.90
2023-05-14T12:17:17.773Z,3.80
2023-05-14T12:19:45.469Z,9.60
2023-05-14T12:22:13.949Z,7.00
2023-05-14T12:24:42.834Z,8.20
2023-05-14T12:27:09.881Z,3.70
2023-05-14T12:29:38.266Z,3.90
2023-05-14T12:32:08.726Z,4.40
2023-05-14T12:34:37.472Z,6.60
2023-05-14T12:37:11.804Z,4.10
2023-05-14T12:39:41.727Z,6.90
2023-05-14T12:42:08.499Z,8.60
2023-05-14T12:44:35.737Z,6.90
2023-05-14T12:47:02.676Z,5.50
2023-05-14T12:49:29.557Z,6.20
2023-05-14T12:52:07.709Z,7.90
2023-05-14T12:54:35.341Z,8.70
2023-05-14T12:57:03.518Z,8.10
2023-05-14T12:59:30.877Z,7.90
2023-05-14T13:01:57.546Z,4.70
2023-05-14T13:04:24.554Z,5.20
2023-05-14T13:06:51.898Z,4.00
2023-05-14T13:09:18.692Z,6.10
2023-05-14T13:11:45.827Z,3.50
2023-05-14T13:14:12.740Z,6.00
2023-05-14T13:16:39.560Z,3.30
2023-05-14T13:19:06.893Z,4.90
2023-05-14T13:21:34.998Z,5.90
2023-05-14T13:24:01.977Z,5.90
2023-05-14T13:26:29.373Z,7.80
2023-05-14T13:28:56.147Z,6.80
2023-05-14T13:31:23.031Z,5.70
2023-05-14T13:33:50.083Z,7.20
2023-05-14T13:36:17.086Z,6.50
2023-05-14T13:38:45.311Z,6.00
2023-05-14T13:41:12.047Z,4.40
2023-05-14T13:43:38.833Z,3.70
2023-05-14T13:46:06.166Z,6.80
2023-05-14T13:48:34.083Z,9.30
2023-05-14T13:51:00.773Z,8.10
2023-05-14T13:53:27.620Z,7.80
2023-05-14T13:55:57.959Z,4.60
2023-05-14T13:58:25.691Z,4.50
2023-05-14T14:00:52.732Z,9.30
2023-05-14T14:03:19.868Z,3.60
2023-05-14T14:05:47.227Z,6.10
2023-05-14T14:08:23.314Z,8.50
2023-05-14T14:10:51.546Z,4.90
2023-05-14T14:13:18.419Z,3.90
2023-05-14T14:15:45.161Z,6.00
2023-05-14T14:18:12.197Z,8.90
2023-05-14T14:20:38.809Z,9.10
2023-05-14T14:23:06.604Z,4.60
2023-05-14T14:25:33.455Z,4.60
2023-05-14T14:28:00.496Z,8.30
2023-05-14T14:30:27.202Z,9.40
2023-05-14T14:32:54.219Z,8.90
2023-05-14T14:35:21.068Z,8.00
2023-05-14T14:37:53.166Z,8.70
2023-05-14T14:40:20.030Z,7.20
2023-05-14T14:42:46.778Z,7.70
2023-05-14T14:45:13.499Z,7.50
2023-05-14T14:47:45.485Z,6.50
2023-05-14T14:50:12.761Z,5.50
2023-05-14T14:52:40.538Z,9.30
2023-05-14T14:55:07.620Z,5.70
2023-05-14T14:57:34.456Z,5.00
2023-05-14T15:00:02.526Z,9.10
2023-05-14T15:02:30.815Z,5.50
2023-05-14T15:04:57.560Z,4.20
2023-05-14T15:07:24.301Z,6.40
2023-05-14T15:09:51.022Z,7.50
2023-05-14T15:12:18.032Z,11.50
2023-05-14T15:14:45.176Z,9.10
2023-05-14T15:17:11.877Z,8.70
2023-05-14T15:19:39.086Z,4.90
2023-05-14T15:22:05.804Z,6.00
2023-05-14T15:24:32.601Z,12.80
2023-05-14T15:26:59.525Z,10.90
2023-05-14T15:29:26.365Z,16.50
2023-05-14T15:31:53.138Z,8.60
2023-05-14T15:34:20.194Z,11.00
2023-05-14T15:36:46.879Z,8.30
2023-05-14T15:39:13.570Z,11.40
2023-05-14T15:41:40.357Z,12.50
2023-05-14T15:44:07.088Z,11.50
2023-05-14T15:46:33.968Z,15.90
2023-05-14T15:49:00.815Z,10.50
2023-05-14T15:51:27.722Z,8.50
2023-05-14T15:53:54.433Z,10.80
2023-05-14T15:56:23.159Z,15.00
2023-05-14T15:58:50.083Z,15.40
2023-05-14T16:01:18.264Z,7.80
2023-05-14T16:03:45.003Z,11.70
2023-05-14T16:06:12.277Z,10.60
2023-05-14T16:08:39.280Z,11.90
2023-05-14T16:11:07.129Z,11.70
2023-05-14T16:13:37.849Z,8.30
2023-05-14T16:16:05.562Z,9.30
2023-05-14T16:18:33.155Z,12.20
2023-05-14T16:21:01.192Z,12.30
2023-05-14T16:23:28.069Z,11.10
2023-05-14T16:25:54.976Z,14.60
2023-05-14T16:28:21.688Z,10.10
2023-05-14T16:30:49.745Z,15.40
2023-05-14T16:33:16.541Z,10.30
2023-05-14T16:35:44.868Z,13.80
2023-05-14T16:38:11.644Z,15.70
2023-05-14T16:40:38.599Z,14.00
2023-05-14T16:43:05.902Z,16.00
2023-05-14T16:45:36.705Z,19.60
2023-05-14T16:48:04.132Z,20.40
2023-05-14T16:50:31.279Z,16.50
2023-05-14T16:52:57.948Z,14.60
2023-05-14T16:55:25.376Z,16.10
2023-05-14T16:57:52.283Z,13.70
2023-05-14T17:00:19.029Z,21.00
2023-05-14T17:02:49.287Z,14.20
2023-05-14T17:05:16.433Z,14.80
2023-05-14T17:07:43.160Z,14.70
2023-05-14T17:10:10.036Z,21.90
2023-05-14T17:12:37.338Z,23.60
2023-05-14T17:15:06.626Z,30.70
2023-05-14T17:17:33.499Z,24.50
2023-05-14T17:20:00.818Z,23.40
2023-05-14T17:22:27.838Z,22.90
2023-05-14T17:24:54.456Z,20.30
2023-05-14T17:27:21.152Z,17.70
2023-05-14T17:29:50.540Z,28.70
2023-05-14T17:32:17.856Z,15.70
2023-05-14T17:34:44.557Z,14.10
2023-05-14T17:37:12.306Z,14.30
2023-05-14T17:39:39.064Z,22.70
2023-05-14T17:42:06.400Z,21.00
2023-05-14T17:44:33.127Z,14.60
2023-05-14T17:47:00.630Z,17.30
2023-05-14T17:49:27.463Z,20.80
2023-05-14T17:51:54.168Z,23.60
2023-05-14T17:54:21.462Z,22.40
2023-05-14T17:56:50.290Z,18.90
2023-05-14T17:59:17.130Z,23.70
2023-05-14T18:01:44.731Z,26.30
2023-05-14T18:04:11.566Z,27.10
2023-05-14T18:06:38.532Z,25.70
2023-05-14T18:09:05.615Z,22.90
2023-05-14T18:11:33.177Z,21.80
2023-05-14T18:14:00.452Z,22.50
2023-05-14T18:16:27.589Z,21.10
2023-05-14T18:18:55.864Z,20.00
2023-05-14T18:21:28.495Z,18.70
2023-05-14T18:23:55.416Z,19.50
2023-05-14T18:26:22.608Z,25.50
2023-05-14T18:28:49.268Z,18.30
2023-05-14T18:31:16.066Z,19.20
2023-05-14T18:33:45.547Z,26.50
2023-05-14T18:36:12.265Z,30.50
2023-05-14T18:38:40.322Z,20.10
2023-05-14T18:41:07.199Z,22.10
2023-05-14T18:43:34.009Z,24.30
2023-05-14T18:46:00.941Z,17.60
2023-05-14T18:48:28.425Z,20.50
2023-05-14T18:50:55.162Z,19.80
2023-05-14T18:53:22.524Z,20.40
2023-05-14T18:55:49.948Z,16.60
2023-05-14T18:58:16.979Z,25.30
2023-05-14T19:00:43.913Z,16.90
2023-05-14T19:03:11.094Z,12.80
2023-05-14T19:05:39.072Z,16.80
2023-05-14T19:08:06.708Z,12.20
2023-05-14T19:10:34.201Z,12.50
2023-05-14T19:13:01.631Z,16.70
2023-05-14T19:15:28.453Z,20.40
2023-05-14T19:17:55.792Z,15.00
2023-05-14T19:20:22.549Z,11.70
2023-05-14T19:22:59.134Z,17.00
2023-05-14T19:25:26.861Z,16.60
2023-05-14T19:28:00.946Z,19.70
2023-05-14T19:30:28.112Z,20.50
2023-05-14T19:32:59.068Z,13.90
2023-05-14T19:35:26.859Z,19.50
2023-05-14T19:37:55.935Z,19.80
2023-05-14T19:40:22.883Z,15.30
2023-05-14T19:42:52.579Z,17.10
2023-05-14T19:45:19.331Z,18.10
2023-05-14T19:47:46.188Z,16.70
2023-05-14T19:50:12.989Z,12.60
2023-05-14T19:52:42.202Z,33.00
2023-05-14T19:55:11.299Z,14.20
2023-05-14T19:57:38.622Z,15.60
2023-05-14T20:00:09.576Z,15.90
2023-05-14T20:02:42.604Z,19.90
2023-05-14T20:05:10.003Z,12.00
2023-05-14T20:07:38.331Z,12.50
2023-05-14T20:10:07.210Z,9.70
2023-05-14T20:12:34.553Z,13.30
2023-05-14T20:15:01.350Z,10.20
2023-05-14T20:17:29.029Z,11.50
2023-05-14T20:19:55.817Z,12.30
2023-05-14T20:22:22.586Z,13.80
2023-05-14T20:24:51.983Z,11.40
2023-05-14T20:27:18.731Z,13.00
2023-05-14T20:29:46.497Z,12.90
2023-05-14T20:32:14.292Z,17.60
2023-05-14T20:34:40.899Z,11.30
2023-05-14T20:37:08.235Z,13.10
2023-05-14T20:39:34.976Z,9.80
2023-05-14T20:42:01.664Z,10.50
2023-05-14T20:44:28.908Z,13.80
2023-05-14T20:46:55.711Z,14.10
2023-05-14T20:49:22.424Z,9.80
2023-05-14T20:51:49.110Z,10.80
2023-05-14T20:54:15.892Z,11.10
2023-05-14T20:56:42.711Z,12.70
2023-05-14T20:59:09.461Z,7.40
2023-05-14T21:01:36.313Z,11.70
2023-05-14T21:04:03.364Z,12.50
2023-05-14T21:06:30.959Z,15.70
2023-05-14T21:08:59.489Z,17.60
2023-05-14T21:11:26.238Z,8.40
2023-05-14T21:13:53.032Z,12.00
2023-05-14T21:16:20.121Z,8.70
2023-05-14T21:18:47.140Z,8.70
2023-05-14T21:21:13.794Z,10.90
2023-05-14T21:23:40.464Z,10.00
2023-05-14T21:26:07.092Z,7.80
2023-05-14T21:28:34.893Z,11.30
2023-05-14T21:31:01.597Z,13.20
2023-05-14T21:33:28.747Z,11.10
2023-05-14T21:35:55.556Z,12.30
2023-05-14T21:38:22.338Z,9.70
2023-05-14T21:40:49.025Z,12.10
2023-05-14T21:43:15.699Z,12.50
2023-05-14T21:45:42.739Z,12.40
2023-05-14T21:48:09.575Z,13.10
2023-05-14T21:50:36.796Z,9.30
2023-05-14T21:53:03.431Z,11.20
2023-05-14T21:55:31.252Z,9.50
2023-05-14T21:57:58.036Z,11.50
2023-05-14T22:00:24.771Z,13.80
2023-05-14T22:02:52.111Z,12.10
2023-05-14T22:05:19.612Z,13.00
2023-05-14T22:07:46.373Z,11.50
2023-05-14T22:10:13.757Z,12.70
2023-05-14T22:12:41.243Z,11.50
2023-05-14T22:15:08.668Z,15.60
2023-05-14T22:17:35.933Z,15.40
2023-05-14T22:20:04.922Z,9.90
2023-05-14T22:22:33.189Z,12.60
2023-05-14T22:24:59.844Z,9.30
2023-05-14T22:27:26.557Z,12.40
2023-05-14T22:29:54.657Z,9.50
2023-05-14T22:32:21.466Z,9.60
2023-05-14T22:34:48.195Z,9.00
2023-05-14T22:37:15.117Z,10.60
2023-05-14T22:39:42.192Z,9.50
2023-05-14T22:42:08.843Z,9.90
2023-05-14T22:44:36.496Z,9.10
2023-05-14T22:47:04.710Z,7.90
2023-05-14T22:49:31.588Z,9.90
2023-05-14T22:51:58.321Z,12.20
2023-05-14T22:54:25.157Z,11.00
2023-05-14T22:56:51.787Z,8.70
2023-05-14T22:59:18.529Z,11.80
2023-05-14T23:01:45.464Z,9.30
2023-05-14T23:04:12.352Z,7.60
2023-05-14T23:06:39.106Z,7.40
2023-05-14T23:09:05.766Z,8.20
2023-05-14T23:11:32.399Z,8.80
2023-05-14T23:13:59.115Z,9.20
2023-05-14T23:16:25.854Z,10.40
2023-05-14T23:18:53.076Z,12.10
2023-05-14T23:21:19.915Z,9.20
2023-05-14T23:23:48.300Z,10.10
2023-05-14T23:26:15.083Z,11.00
2023-05-14T23:28:42.212Z,15.70
2023-05-14T23:31:10.124Z,9.50
2023-05-14T23:33:39.084Z,7.90
2023-05-14T23:36:06.216Z,8.80
2023-05-14T23:38:33.659Z,11.90
2023-05-14T23:41:00.279Z,11.40
2023-05-14T23:43:27.512Z,12.40
2023-05-14T23:45:54.197Z,11.00
2023-05-14T23:48:20.848Z,14.90
2023-05-14T23:50:47.530Z,10.90
2023-05-14T23:53:14.303Z,12.40
2023-05-14T23:55:40.972Z,9.90
2023-05-14T23:58:07.686Z,11.70
